sensor_id;sensor_type;location;lat;lon;timestamp;pressure;altitude;pressure_sealevel;temperature;humidity
25080;BME280;13071;48.868;9.996;2023-09-07T00:01:14;96856.44;;;15.12;89.10
25080;BME280;13071;48.868;9.996;2023-09-07T00:03:42;96858.16;;;15.21;87.88
25080;BME280;13071;48.868;9.996;2023-09-07T00:06:09;96858.28;;;15.24;87.66
25080;BME280;13071;48.868;9.996;2023-09-07T00:08:36;96851.22;;;15.23;88.19
25080;BME280;13071;48.868;9.996;2023-09-07T00:11:03;96853.84;;;15.20;88.82
25080;BME280;13071;48.868;9.996;2023-09-07T00:13:30;96856.44;;;15.12;88.90
25080;BME280;13071;48.868;9.996;2023-09-07T00:15:58;96849.84;;;15.13;88.65
25080;BME280;13071;48.868;9.996;2023-09-07T00:18:25;96852.47;;;15.10;88.65
25080;BME280;13071;48.868;9.996;2023-09-07T00:20:53;96853.44;;;15.02;88.73
25080;BME280;13071;48.868;9.996;2023-09-07T00:23:20;96852.84;;;14.93;89.54
25080;BME280;13071;48.868;9.996;2023-09-07T00:25:46;96854.56;;;15.01;89.09
25080;BME280;13071;48.868;9.996;2023-09-07T00:28:13;96851.78;;;14.97;89.15
25080;BME280;13071;48.868;9.996;2023-09-07T00:30:40;96856.69;;;15.07;89.26
25080;BME280;13071;48.868;9.996;2023-09-07T00:33:07;96846.50;;;15.04;88.76
25080;BME280;13071;48.868;9.996;2023-09-07T00:35:34;96848.31;;;15.16;88.11
25080;BME280;13071;48.868;9.996;2023-09-07T00:38:02;96846.47;;;15.20;87.68
25080;BME280;13071;48.868;9.996;2023-09-07T00:40:29;96846.91;;;15.22;87.46
25080;BME280;13071;48.868;9.996;2023-09-07T00:42:56;96850.44;;;15.23;87.47
25080;BME280;13071;48.868;9.996;2023-09-07T00:45:22;96856.31;;;15.25;87.15
25080;BME280;13071;48.868;9.996;2023-09-07T00:47:49;96851.84;;;15.17;87.72
25080;BME280;13071;48.868;9.996;2023-09-07T00:50:16;96861.16;;;15.16;87.94
25080;BME280;13071;48.868;9.996;2023-09-07T00:52:43;96862.75;;;15.17;88.36
25080;BME280;13071;48.868;9.996;2023-09-07T00:55:12;96863.63;;;15.21;88.45
25080;BME280;13071;48.868;9.996;2023-09-07T00:57:39;96863.34;;;15.26;88.49
25080;BME280;13071;48.868;9.996;2023-09-07T01:00:09;96855.19;;;15.10;89.13
25080;BME280;13071;48.868;9.996;2023-09-07T01:02:35;96850.97;;;15.12;89.31
25080;BME280;13071;48.868;9.996;2023-09-07T01:05:02;96858.34;;;15.12;88.95
25080;BME280;13071;48.868;9.996;2023-09-07T01:07:32;96860.56;;;15.06;89.52
25080;BME280;13071;48.868;9.996;2023-09-07T01:10:02;96858.81;;;15.14;88.57
25080;BME280;13071;48.868;9.996;2023-09-07T01:12:31;96863.00;;;15.11;88.30
25080;BME280;13071;48.868;9.996;2023-09-07T01:14:57;96848.97;;;15.09;88.99
25080;BME280;13071;48.868;9.996;2023-09-07T01:17:25;96857.84;;;15.06;88.76
25080;BME280;13071;48.868;9.996;2023-09-07T01:19:52;96849.75;;;14.94;88.95
25080;BME280;13071;48.868;9.996;2023-09-07T01:22:21;96852.75;;;14.89;88.89
25080;BME280;13071;48.868;9.996;2023-09-07T01:24:50;96851.78;;;14.82;89.42
25080;BME280;13071;48.868;9.996;2023-09-07T01:27:17;96851.34;;;14.80;89.09
25080;BME280;13071;48.868;9.996;2023-09-07T01:29:44;96858.34;;;14.81;89.27
25080;BME280;13071;48.868;9.996;2023-09-07T01:32:11;96856.53;;;14.85;89.68
25080;BME280;13071;48.868;9.996;2023-09-07T01:37:23;96859.78;;;14.75;90.02
25080;BME280;13071;48.868;9.996;2023-09-07T01:39:50;96853.88;;;14.73;90.13
25080;BME280;13071;48.868;9.996;2023-09-07T01:42:16;96859.25;;;14.69;90.77
25080;BME280;13071;48.868;9.996;2023-09-07T01:44:43;96856.34;;;14.62;90.59
25080;BME280;13071;48.868;9.996;2023-09-07T01:47:10;96861.50;;;14.51;91.00
25080;BME280;13071;48.868;9.996;2023-09-07T01:49:37;96858.78;;;14.51;91.38
25080;BME280;13071;48.868;9.996;2023-09-07T01:52:04;96860.28;;;14.49;91.86
25080;BME280;13071;48.868;9.996;2023-09-07T01:54:32;96862.91;;;14.45;91.86
25080;BME280;13071;48.868;9.996;2023-09-07T01:56:59;96867.81;;;14.40;91.54
25080;BME280;13071;48.868;9.996;2023-09-07T01:59:25;96867.44;;;14.41;92.30
25080;BME280;13071;48.868;9.996;2023-09-07T02:01:52;96859.41;;;14.45;92.24
25080;BME280;13071;48.868;9.996;2023-09-07T02:04:18;96856.56;;;14.41;92.65
25080;BME280;13071;48.868;9.996;2023-09-07T02:06:45;96867.56;;;14.45;93.02
25080;BME280;13071;48.868;9.996;2023-09-07T02:09:11;96861.66;;;14.43;92.89
25080;BME280;13071;48.868;9.996;2023-09-07T02:11:39;96858.41;;;14.37;93.33
25080;BME280;13071;48.868;9.996;2023-09-07T02:14:06;96858.84;;;14.39;92.90
25080;BME280;13071;48.868;9.996;2023-09-07T02:16:34;96858.84;;;14.39;93.50
25080;BME280;13071;48.868;9.996;2023-09-07T02:19:02;96849.31;;;14.33;93.99
25080;BME280;13071;48.868;9.996;2023-09-07T02:21:30;96858.41;;;14.37;93.44
25080;BME280;13071;48.868;9.996;2023-09-07T02:23:56;96856.59;;;14.29;93.93
25080;BME280;13071;48.868;9.996;2023-09-07T02:26:23;96852.28;;;14.28;93.71
25080;BME280;13071;48.868;9.996;2023-09-07T02:28:51;96847.97;;;14.27;93.92
25080;BME280;13071;48.868;9.996;2023-09-07T02:31:17;96850.81;;;14.31;93.39
25080;BME280;13071;48.868;9.996;2023-09-07T02:33:45;96836.50;;;14.34;92.98
25080;BME280;13071;48.868;9.996;2023-09-07T02:36:11;96841.94;;;14.34;93.76
25080;BME280;13071;48.868;9.996;2023-09-07T02:38:39;96849.09;;;14.38;93.30
25080;BME280;13071;48.868;9.996;2023-09-07T02:41:05;96854.44;;;14.35;93.84
25080;BME280;13071;48.868;9.996;2023-09-07T02:43:32;96851.25;;;14.33;93.81
25080;BME280;13071;48.868;9.996;2023-09-07T02:46:00;96844.84;;;14.25;93.60
25080;BME280;13071;48.868;9.996;2023-09-07T02:48:26;96848.22;;;14.22;94.08
25080;BME280;13071;48.868;9.996;2023-09-07T02:50:53;96842.78;;;14.22;94.00
25080;BME280;13071;48.868;9.996;2023-09-07T02:53:20;96836.13;;;14.19;94.36
25080;BME280;13071;48.868;9.996;2023-09-07T02:55:46;96842.63;;;14.15;94.62
25080;BME280;13071;48.868;9.996;2023-09-07T02:58:13;96834.78;;;14.13;94.47
25080;BME280;13071;48.868;9.996;2023-09-07T03:00:43;96835.50;;;14.10;94.44
25080;BME280;13071;48.868;9.996;2023-09-07T03:03:12;96834.56;;;14.06;94.68
25080;BME280;13071;48.868;9.996;2023-09-07T03:05:39;96846.06;;;14.00;95.67
25080;BME280;13071;48.868;9.996;2023-09-07T03:08:06;96847.47;;;13.94;96.29
25080;BME280;13071;48.868;9.996;2023-09-07T03:10:33;96846.09;;;13.88;98.20
25080;BME280;13071;48.868;9.996;2023-09-07T03:12:59;96846.31;;;13.95;97.89
25080;BME280;13071;48.868;9.996;2023-09-07T03:15:26;96845.19;;;13.96;98.37
25080;BME280;13071;48.868;9.996;2023-09-07T03:17:53;96850.38;;;14.01;98.11
25080;BME280;13071;48.868;9.996;2023-09-07T03:20:21;96852.31;;;14.00;97.65
25080;BME280;13071;48.868;9.996;2023-09-07T03:22:48;96851.16;;;14.01;97.56
25080;BME280;13071;48.868;9.996;2023-09-07T03:25:15;96850.38;;;14.01;98.69
25080;BME280;13071;48.868;9.996;2023-09-07T03:27:41;96849.59;;;14.00;98.55
25080;BME280;13071;48.868;9.996;2023-09-07T03:30:08;96847.84;;;14.08;97.36
25080;BME280;13071;48.868;9.996;2023-09-07T03:32:36;96842.41;;;14.08;97.49
25080;BME280;13071;48.868;9.996;2023-09-07T03:35:04;96845.91;;;14.08;97.04
25080;BME280;13071;48.868;9.996;2023-09-07T03:37:33;96841.44;;;14.00;97.05
25080;BME280;13071;48.868;9.996;2023-09-07T03:40:00;96840.78;;;13.91;97.09
25080;BME280;13071;48.868;9.996;2023-09-07T03:42:26;96832.97;;;13.90;97.39
25080;BME280;13071;48.868;9.996;2023-09-07T03:44:53;96837.63;;;13.77;97.82
25080;BME280;13071;48.868;9.996;2023-09-07T03:47:20;96832.91;;;13.74;98.20
25080;BME280;13071;48.868;9.996;2023-09-07T03:49:46;96835.06;;;13.68;98.23
25080;BME280;13071;48.868;9.996;2023-09-07T03:52:13;96834.31;;;13.56;98.62
25080;BME280;13071;48.868;9.996;2023-09-07T03:54:41;96838.03;;;13.63;98.87
25080;BME280;13071;48.868;9.996;2023-09-07T03:57:07;96836.81;;;13.61;99.40
25080;BME280;13071;48.868;9.996;2023-09-07T03:59:34;96828.97;;;13.59;99.19
25080;BME280;13071;48.868;9.996;2023-09-07T04:02:01;96840.88;;;13.55;98.00
25080;BME280;13071;48.868;9.996;2023-09-07T04:04:27;96839.78;;;13.44;98.33
25080;BME280;13071;48.868;9.996;2023-09-07T04:06:54;96834.78;;;13.46;98.98
25080;BME280;13071;48.868;9.996;2023-09-07T04:09:20;96830.81;;;13.43;99.03
25080;BME280;13071;48.868;9.996;2023-09-07T04:11:48;96838.19;;;13.43;98.83
25080;BME280;13071;48.868;9.996;2023-09-07T04:14:15;96839.53;;;13.49;98.76
25080;BME280;13071;48.868;9.996;2023-09-07T04:16:42;96840.66;;;13.48;98.06
25080;BME280;13071;48.868;9.996;2023-09-07T04:19:08;96839.44;;;13.45;98.52
25080;BME280;13071;48.868;9.996;2023-09-07T04:21:35;96845.22;;;13.44;98.95
25080;BME280;13071;48.868;9.996;2023-09-07T04:24:02;96845.09;;;13.40;100.00
25080;BME280;13071;48.868;9.996;2023-09-07T04:26:29;96842.94;;;13.46;100.00
25080;BME280;13071;48.868;9.996;2023-09-07T04:28:57;96844.63;;;13.50;100.00
25080;BME280;13071;48.868;9.996;2023-09-07T04:31:23;96846.47;;;13.46;100.00
25080;BME280;13071;48.868;9.996;2023-09-07T04:33:52;96845.31;;;13.47;100.00
25080;BME280;13071;48.868;9.996;2023-09-07T04:36:19;96844.31;;;13.52;100.00
25080;BME280;13071;48.868;9.996;2023-09-07T04:38:45;96851.31;;;13.53;100.00
25080;BME280;13071;48.868;9.996;2023-09-07T04:41:13;96849.28;;;13.50;99.52
25080;BME280;13071;48.868;9.996;2023-09-07T04:43:41;96843.75;;;13.46;99.28
25080;BME280;13071;48.868;9.996;2023-09-07T04:46:11;96848.38;;;13.46;99.41
25080;BME280;13071;48.868;9.996;2023-09-07T04:48:38;96846.78;;;13.45;99.89
25080;BME280;13071;48.868;9.996;2023-09-07T04:51:06;96844.19;;;13.48;98.97
25080;BME280;13071;48.868;9.996;2023-09-07T04:53:34;96842.25;;;13.49;99.13
25080;BME280;13071;48.868;9.996;2023-09-07T04:56:01;96840.09;;;13.42;99.00
25080;BME280;13071;48.868;9.996;2023-09-07T04:58:28;96849.50;;;13.45;99.84
25080;BME280;13071;48.868;9.996;2023-09-07T05:01:01;96836.91;;;13.52;100.00
25080;BME280;13071;48.868;9.996;2023-09-07T05:03:30;96851.75;;;13.55;100.00
25080;BME280;13071;48.868;9.996;2023-09-07T05:05:57;96849.38;;;13.53;100.00
25080;BME280;13071;48.868;9.996;2023-09-07T05:08:24;96855.38;;;13.59;100.00
25080;BME280;13071;48.868;9.996;2023-09-07T05:10:54;96850.25;;;13.69;100.00
25080;BME280;13071;48.868;9.996;2023-09-07T05:13:22;96853.88;;;13.73;100.00
25080;BME280;13071;48.868;9.996;2023-09-07T05:15:49;96850.91;;;13.78;100.00
25080;BME280;13071;48.868;9.996;2023-09-07T05:18:16;96857.44;;;13.90;100.00
25080;BME280;13071;48.868;9.996;2023-09-07T05:20:45;96857.13;;;13.91;99.31
25080;BME280;13071;48.868;9.996;2023-09-07T05:23:14;96863.56;;;13.87;99.20
25080;BME280;13071;48.868;9.996;2023-09-07T05:25:44;96857.53;;;13.93;99.17
25080;BME280;13071;48.868;9.996;2023-09-07T05:28:12;96857.75;;;14.00;98.82
25080;BME280;13071;48.868;9.996;2023-09-07T05:30:39;96865.78;;;14.09;97.97
25080;BME280;13071;48.868;9.996;2023-09-07T05:33:06;96860.06;;;14.14;98.08
25080;BME280;13071;48.868;9.996;2023-09-07T05:35:33;96863.09;;;14.24;97.48
25080;BME280;13071;48.868;9.996;2023-09-07T05:38:02;96859.13;;;14.22;97.67
25080;BME280;13071;48.868;9.996;2023-09-07T05:40:28;96865.81;;;14.24;97.48
25080;BME280;13071;48.868;9.996;2023-09-07T05:42:55;96868.41;;;14.21;98.53
25080;BME280;13071;48.868;9.996;2023-09-07T05:45:21;96869.88;;;14.31;97.81
25080;BME280;13071;48.868;9.996;2023-09-07T05:47:48;96867.69;;;14.36;98.09
25080;BME280;13071;48.868;9.996;2023-09-07T05:50:15;96871.00;;;14.30;100.00
25080;BME280;13071;48.868;9.996;2023-09-07T05:52:41;96868.84;;;14.35;98.04
25080;BME280;13071;48.868;9.996;2023-09-07T05:55:09;96875.81;;;14.48;98.07
25080;BME280;13071;48.868;9.996;2023-09-07T05:57:36;96866.22;;;14.39;100.00
25080;BME280;13071;48.868;9.996;2023-09-07T06:00:03;96868.03;;;14.62;98.42
25080;BME280;13071;48.868;9.996;2023-09-07T06:02:30;96874.22;;;14.47;99.39
25080;BME280;13071;48.868;9.996;2023-09-07T06:04:57;96870.03;;;14.65;98.33
25080;BME280;13071;48.868;9.996;2023-09-07T06:07:23;96868.63;;;14.72;98.32
25080;BME280;13071;48.868;9.996;2023-09-07T06:09:50;96864.94;;;14.64;99.42
25080;BME280;13071;48.868;9.996;2023-09-07T06:12:18;96865.38;;;14.66;98.58
25080;BME280;13071;48.868;9.996;2023-09-07T06:14:45;96869.91;;;14.90;97.28
25080;BME280;13071;48.868;9.996;2023-09-07T06:17:11;96872.00;;;15.12;95.70
25080;BME280;13071;48.868;9.996;2023-09-07T06:19:38;96867.41;;;15.32;95.73
25080;BME280;13071;48.868;9.996;2023-09-07T06:22:05;96867.72;;;15.30;97.09
25080;BME280;13071;48.868;9.996;2023-09-07T06:24:32;96869.31;;;15.63;95.00
25080;BME280;13071;48.868;9.996;2023-09-07T06:26:58;96871.50;;;15.41;96.46
25080;BME280;13071;48.868;9.996;2023-09-07T06:29:27;96872.31;;;15.58;93.36
25080;BME280;13071;48.868;9.996;2023-09-07T06:31:53;96872.06;;;15.82;94.29
25080;BME280;13071;48.868;9.996;2023-09-07T06:34:20;96875.16;;;15.99;90.67
25080;BME280;13071;48.868;9.996;2023-09-07T06:36:46;96878.59;;;16.16;94.43
25080;BME280;13071;48.868;9.996;2023-09-07T06:39:13;96870.47;;;16.19;93.23
25080;BME280;13071;48.868;9.996;2023-09-07T06:41:39;96878.56;;;16.54;92.78
25080;BME280;13071;48.868;9.996;2023-09-07T06:44:07;96877.69;;;16.27;92.79
25080;BME280;13071;48.868;9.996;2023-09-07T06:46:35;96874.94;;;16.27;91.78
25080;BME280;13071;48.868;9.996;2023-09-07T06:49:02;96877.34;;;16.52;90.32
25080;BME280;13071;48.868;9.996;2023-09-07T06:51:30;96873.78;;;16.67;88.26
25080;BME280;13071;48.868;9.996;2023-09-07T06:53:57;96877.72;;;16.69;91.85
25080;BME280;13071;48.868;9.996;2023-09-07T06:56:24;96878.69;;;16.80;89.37
25080;BME280;13071;48.868;9.996;2023-09-07T06:58:51;96883.97;;;16.70;90.72
25080;BME280;13071;48.868;9.996;2023-09-07T07:01:18;96885.97;;;16.73;88.87
25080;BME280;13071;48.868;9.996;2023-09-07T07:03:46;96888.81;;;17.03;88.91
25080;BME280;13071;48.868;9.996;2023-09-07T07:06:13;96885.94;;;16.92;89.99
25080;BME280;13071;48.868;9.996;2023-09-07T07:08:39;96880.09;;;16.94;91.79
25080;BME280;13071;48.868;9.996;2023-09-07T07:11:06;96884.78;;;17.16;92.67
25080;BME280;13071;48.868;9.996;2023-09-07T07:13:33;96886.44;;;17.24;89.86
25080;BME280;13071;48.868;9.996;2023-09-07T07:15:59;96880.13;;;17.20;89.92
25080;BME280;13071;48.868;9.996;2023-09-07T07:18:26;96884.47;;;17.21;89.92
25080;BME280;13071;48.868;9.996;2023-09-07T07:20:54;96889.25;;;17.54;89.47
25080;BME280;13071;48.868;9.996;2023-09-07T07:23:20;96894.31;;;17.52;88.74
25080;BME280;13071;48.868;9.996;2023-09-07T07:25:47;96883.97;;;17.64;88.49
25080;BME280;13071;48.868;9.996;2023-09-07T07:28:14;96882.78;;;17.92;86.52
25080;BME280;13071;48.868;9.996;2023-09-07T07:30:40;96879.56;;;18.16;85.58
25080;BME280;13071;48.868;9.996;2023-09-07T07:33:07;96870.31;;;18.28;83.96
25080;BME280;13071;48.868;9.996;2023-09-07T07:35:34;96881.09;;;18.43;85.48
25080;BME280;13071;48.868;9.996;2023-09-07T07:38:03;96872.72;;;18.66;84.98
25080;BME280;13071;48.868;9.996;2023-09-07T07:40:30;96866.41;;;18.99;80.39
25080;BME280;13071;48.868;9.996;2023-09-07T07:42:56;96876.03;;;19.26;81.41
25080;BME280;13071;48.868;9.996;2023-09-07T07:45:23;96875.75;;;19.38;78.74
25080;BME280;13071;48.868;9.996;2023-09-07T07:47:50;96869.31;;;19.71;77.23
25080;BME280;13071;48.868;9.996;2023-09-07T07:50:17;96861.44;;;19.70;78.25
25080;BME280;13071;48.868;9.996;2023-09-07T07:52:44;96861.09;;;19.75;79.04
25080;BME280;13071;48.868;9.996;2023-09-07T07:55:13;96869.88;;;20.02;79.25
25080;BME280;13071;48.868;9.996;2023-09-07T07:57:39;96861.66;;;20.09;78.50
25080;BME280;13071;48.868;9.996;2023-09-07T08:00:07;96866.84;;;20.28;78.93
25080;BME280;13071;48.868;9.996;2023-09-07T08:02:34;96868.13;;;20.45;74.64
25080;BME280;13071;48.868;9.996;2023-09-07T08:05:00;96866.59;;;20.65;74.02
25080;BME280;13071;48.868;9.996;2023-09-07T08:07:27;96866.22;;;20.74;72.22
25080;BME280;13071;48.868;9.996;2023-09-07T08:09:54;96861.53;;;20.81;72.69
25080;BME280;13071;48.868;9.996;2023-09-07T08:12:22;96873.31;;;20.82;72.42
25080;BME280;13071;48.868;9.996;2023-09-07T08:14:48;96862.69;;;20.77;74.68
25080;BME280;13071;48.868;9.996;2023-09-07T08:17:15;96866.66;;;21.04;72.52
25080;BME280;13071;48.868;9.996;2023-09-07T08:19:41;96864.69;;;20.94;72.53
25080;BME280;13071;48.868;9.996;2023-09-07T08:22:09;96863.91;;;21.04;72.47
25080;BME280;13071;48.868;9.996;2023-09-07T08:24:35;96858.44;;;21.29;70.52
25080;BME280;13071;48.868;9.996;2023-09-07T08:27:03;96850.16;;;21.22;71.18
25080;BME280;13071;48.868;9.996;2023-09-07T08:29:31;96857.66;;;21.39;71.42
25080;BME280;13071;48.868;9.996;2023-09-07T08:31:57;96852.16;;;21.46;72.55
25080;BME280;13071;48.868;9.996;2023-09-07T08:34:26;96855.66;;;21.43;71.59
25080;BME280;13071;48.868;9.996;2023-09-07T08:36:53;96844.66;;;21.61;71.97
25080;BME280;13071;48.868;9.996;2023-09-07T08:39:24;96849.34;;;21.57;71.59
25080;BME280;13071;48.868;9.996;2023-09-07T08:41:53;96842.66;;;21.68;70.97
25080;BME280;13071;48.868;9.996;2023-09-07T08:44:27;96849.31;;;21.81;70.81
25080;BME280;13071;48.868;9.996;2023-09-07T08:46:57;96850.91;;;21.79;71.13
25080;BME280;13071;48.868;9.996;2023-09-07T08:49:25;96855.19;;;21.87;72.98
25080;BME280;13071;48.868;9.996;2023-09-07T08:51:54;96847.69;;;21.91;72.00
25080;BME280;13071;48.868;9.996;2023-09-07T08:54:24;96844.97;;;21.94;70.88
25080;BME280;13071;48.868;9.996;2023-09-07T08:56:53;96847.31;;;21.96;70.87
25080;BME280;13071;48.868;9.996;2023-09-07T08:59:22;96848.50;;;21.91;71.26
25080;BME280;13071;48.868;9.996;2023-09-07T09:01:49;96853.22;;;22.02;70.58
25080;BME280;13071;48.868;9.996;2023-09-07T09:04:18;96854.28;;;22.25;70.92
25080;BME280;13071;48.868;9.996;2023-09-07T09:06:46;96853.13;;;22.23;71.08
25080;BME280;13071;48.868;9.996;2023-09-07T09:09:21;96851.09;;;22.37;70.89
25080;BME280;13071;48.868;9.996;2023-09-07T09:11:48;96849.91;;;22.42;71.73
25080;BME280;13071;48.868;9.996;2023-09-07T09:14:16;96846.34;;;22.49;69.54
25080;BME280;13071;48.868;9.996;2023-09-07T09:16:48;96840.41;;;22.54;69.31
25080;BME280;13071;48.868;9.996;2023-09-07T09:19:16;96836.50;;;22.44;70.55
25080;BME280;13071;48.868;9.996;2023-09-07T09:21:45;96845.84;;;22.64;71.24
25080;BME280;13071;48.868;9.996;2023-09-07T09:24:12;96840.38;;;22.57;69.73
25080;BME280;13071;48.868;9.996;2023-09-07T09:26:40;96840.34;;;22.61;70.82
25080;BME280;13071;48.868;9.996;2023-09-07T09:31:33;96841.88;;;22.69;71.85
25080;BME280;13071;48.868;9.996;2023-09-07T09:34:00;96841.53;;;22.63;69.90
25080;BME280;13071;48.868;9.996;2023-09-07T09:36:33;96840.06;;;22.45;68.35
25080;BME280;13071;48.868;9.996;2023-09-07T09:39:01;96835.38;;;22.31;69.02
25080;BME280;13071;48.868;9.996;2023-09-07T09:41:31;96835.34;;;22.38;71.44
25080;BME280;13071;48.868;9.996;2023-09-07T09:43:59;96829.75;;;22.52;70.44
25080;BME280;13071;48.868;9.996;2023-09-07T09:46:26;96829.66;;;22.66;68.68
25080;BME280;13071;48.868;9.996;2023-09-07T09:48:54;96829.66;;;22.73;71.63
25080;BME280;13071;48.868;9.996;2023-09-07T09:51:22;96830.03;;;22.75;71.73
25080;BME280;13071;48.868;9.996;2023-09-07T09:53:50;96835.97;;;22.74;71.02
25080;BME280;13071;48.868;9.996;2023-09-07T09:56:18;96826.81;;;22.88;70.71
25080;BME280;13071;48.868;9.996;2023-09-07T09:58:45;96831.81;;;23.00;69.93
25080;BME280;13071;48.868;9.996;2023-09-07T10:01:12;96829.66;;;22.73;68.96
25080;BME280;13071;48.868;9.996;2023-09-07T10:03:44;96832.47;;;22.63;69.86
25080;BME280;13071;48.868;9.996;2023-09-07T10:06:18;96824.13;;;22.77;70.77
25080;BME280;13071;48.868;9.996;2023-09-07T10:08:53;96829.50;;;22.98;68.18
25080;BME280;13071;48.868;9.996;2023-09-07T10:11:29;96828.88;;;22.69;69.56
25080;BME280;13071;48.868;9.996;2023-09-07T10:14:00;96825.94;;;22.98;68.75
25080;BME280;13071;48.868;9.996;2023-09-07T10:16:28;96820.41;;;22.98;68.44
25080;BME280;13071;48.868;9.996;2023-09-07T10:18:55;96817.69;;;22.91;70.55
25080;BME280;13071;48.868;9.996;2023-09-07T10:21:24;96819.00;;;22.79;69.60
25080;BME280;13071;48.868;9.996;2023-09-07T10:23:52;96823.28;;;22.84;69.57
25080;BME280;13071;48.868;9.996;2023-09-07T10:26:19;96817.38;;;22.81;68.62
25080;BME280;13071;48.868;9.996;2023-09-07T10:28:58;96827.56;;;22.92;68.86
25080;BME280;13071;48.868;9.996;2023-09-07T10:31:27;96821.97;;;23.02;68.63
25080;BME280;13071;48.868;9.996;2023-09-07T10:33:55;96821.09;;;23.12;67.61
25080;BME280;13071;48.868;9.996;2023-09-07T10:36:24;96823.91;;;23.05;69.12
25080;BME280;13071;48.868;9.996;2023-09-07T10:38:51;96827.41;;;23.13;68.93
25080;BME280;13071;48.868;9.996;2023-09-07T10:41:19;96820.66;;;23.14;68.40
25080;BME280;13071;48.868;9.996;2023-09-07T10:43:49;96814.28;;;23.24;69.39
25080;BME280;13071;48.868;9.996;2023-09-07T10:46:18;96814.19;;;23.35;69.67
25080;BME280;13071;48.868;9.996;2023-09-07T10:48:45;96817.38;;;23.33;68.46
25080;BME280;13071;48.868;9.996;2023-09-07T10:51:12;96814.41;;;23.58;66.43
25080;BME280;13071;48.868;9.996;2023-09-07T10:53:39;96809.91;;;23.71;67.21
25080;BME280;13071;48.868;9.996;2023-09-07T10:56:06;96816.31;;;23.61;67.37
25080;BME280;13071;48.868;9.996;2023-09-07T10:58:35;96811.94;;;23.63;66.38
25080;BME280;13071;48.868;9.996;2023-09-07T11:01:05;96820.13;;;23.74;66.23
25080;BME280;13071;48.868;9.996;2023-09-07T11:03:32;96814.88;;;23.87;65.39
25080;BME280;13071;48.868;9.996;2023-09-07T11:06:04;96809.63;;;23.62;66.19
25080;BME280;13071;48.868;9.996;2023-09-07T11:08:31;96812.84;;;23.91;68.06
25080;BME280;13071;48.868;9.996;2023-09-07T11:10:59;96803.78;;;23.90;66.55
25080;BME280;13071;48.868;9.996;2023-09-07T11:13:27;96804.47;;;23.98;66.15
25080;BME280;13071;48.868;9.996;2023-09-07T11:15:54;96808.84;;;23.95;65.59
25080;BME280;13071;48.868;9.996;2023-09-07T11:18:23;96805.16;;;23.72;67.30
25080;BME280;13071;48.868;9.996;2023-09-07T11:20:51;96808.66;;;23.76;67.45
25080;BME280;13071;48.868;9.996;2023-09-07T11:23:18;96794.28;;;23.91;65.04
25080;BME280;13071;48.868;9.996;2023-09-07T11:25:46;96798.84;;;24.05;68.94
25080;BME280;13071;48.868;9.996;2023-09-07T11:28:15;96802.78;;;24.07;65.58
25080;BME280;13071;48.868;9.996;2023-09-07T11:30:49;96797.06;;;23.91;64.05
25080;BME280;13071;48.868;9.996;2023-09-07T11:33:16;96795.16;;;23.85;64.73
25080;BME280;13071;48.868;9.996;2023-09-07T11:35:44;96801.28;;;23.99;66.36
25080;BME280;13071;48.868;9.996;2023-09-07T11:38:13;96799.72;;;23.98;63.96
25080;BME280;13071;48.868;9.996;2023-09-07T11:40:40;96802.28;;;24.16;67.45
25080;BME280;13071;48.868;9.996;2023-09-07T11:43:08;96805.34;;;24.25;66.52
25080;BME280;13071;48.868;9.996;2023-09-07T11:45:34;96788.03;;;24.21;63.23
25080;BME280;13071;48.868;9.996;2023-09-07T11:48:01;96799.63;;;24.39;62.87
25080;BME280;13071;48.868;9.996;2023-09-07T11:50:28;96795.53;;;24.47;63.70
25080;BME280;13071;48.868;9.996;2023-09-07T11:52:56;96792.13;;;24.40;61.25
25080;BME280;13071;48.868;9.996;2023-09-07T11:55:23;96794.78;;;24.47;62.93
25080;BME280;13071;48.868;9.996;2023-09-07T11:57:50;96801.84;;;24.51;64.59
25080;BME280;13071;48.868;9.996;2023-09-07T12:00:17;96796.66;;;24.53;61.12
25080;BME280;13071;48.868;9.996;2023-09-07T12:02:44;96790.00;;;24.47;63.07
25080;BME280;13071;48.868;9.996;2023-09-07T12:05:11;96786.75;;;24.56;63.65
25080;BME280;13071;48.868;9.996;2023-09-07T12:07:40;96789.31;;;24.70;62.57
25080;BME280;13071;48.868;9.996;2023-09-07T12:10:10;96785.22;;;24.78;61.01
25080;BME280;13071;48.868;9.996;2023-09-07T12:12:37;96788.84;;;24.75;60.54
25080;BME280;13071;48.868;9.996;2023-09-07T12:15:04;96793.66;;;24.71;61.46
25080;BME280;13071;48.868;9.996;2023-09-07T12:17:32;96789.84;;;24.88;60.42
25080;BME280;13071;48.868;9.996;2023-09-07T12:19:59;96785.91;;;24.86;62.05
25080;BME280;13071;48.868;9.996;2023-09-07T12:22:26;96789.28;;;24.97;63.59
25080;BME280;13071;48.868;9.996;2023-09-07T12:24:52;96787.50;;;24.83;59.86
25080;BME280;13071;48.868;9.996;2023-09-07T12:27:21;96790.28;;;24.83;58.72
25080;BME280;13071;48.868;9.996;2023-09-07T12:29:47;96781.94;;;24.87;59.87
25080;BME280;13071;48.868;9.996;2023-09-07T12:32:14;96777.41;;;25.00;60.22
25080;BME280;13071;48.868;9.996;2023-09-07T12:34:40;96774.50;;;25.07;59.11
25080;BME280;13071;48.868;9.996;2023-09-07T12:37:07;96775.75;;;25.03;57.47
25080;BME280;13071;48.868;9.996;2023-09-07T12:39:34;96779.22;;;25.10;60.05
25080;BME280;13071;48.868;9.996;2023-09-07T12:42:01;96774.97;;;25.02;60.21
25080;BME280;13071;48.868;9.996;2023-09-07T12:44:30;96779.69;;;25.05;58.42
25080;BME280;13071;48.868;9.996;2023-09-07T12:46:57;96777.34;;;25.04;56.81
25080;BME280;13071;48.868;9.996;2023-09-07T12:49:24;96774.50;;;25.07;58.71
25080;BME280;13071;48.868;9.996;2023-09-07T12:51:50;96761.66;;;25.17;58.27
25080;BME280;13071;48.868;9.996;2023-09-07T12:54:17;96770.47;;;25.12;56.20
25080;BME280;13071;48.868;9.996;2023-09-07T12:56:44;96771.06;;;25.23;55.88
25080;BME280;13071;48.868;9.996;2023-09-07T12:59:11;96767.59;;;25.19;56.48
25080;BME280;13071;48.868;9.996;2023-09-07T13:01:39;96760.78;;;25.23;55.47
25080;BME280;13071;48.868;9.996;2023-09-07T13:04:06;96761.06;;;25.29;56.17
25080;BME280;13071;48.868;9.996;2023-09-07T13:06:32;96764.94;;;25.35;55.60